Burton, Texas
Current Conditions -  °F | °C
As of 1:15 AM on Sunday 26 Oct 2014 (Local Time) from K11R Reporting Station
Clear Clear  
Wind Chill: 19°   Ceiling: Unl
Heat Index: 19°   Visibility: 10mi
Dew Point: 16°   Wind: 0mph
Humidity: 83%   Direction: NA
Pressure: 30.09"   Gusts: NA
Location:  30.18°N, 96.6°W
Report Text: K11R 260615Z AUTO 00000KT 10SM CLR 19/16 A3009 RMK AO2 T01850155
Loading
Personal Weather Stations






























Interactive Weather Map
Tropical Storm Tracking
New forecast layout! Learn more

10-Day Weather Forecast

Advertisements
Track Severe Weather on mobile